Latest Coastal Weather Observations for Devonport Airport

IDV60701

Issued at 6:21 pm EDT Friday 6 March 2015 (issued every 10 minutes, with the page automatically refreshed every 10 minutes)

About coastal observations | Map of coastal stations | Coastal observations for VIC | Marine services | Other Formats
Station Details ID: 091126 Name: DEVONPORT AIRPORT Lat: -41.17 Lon: 146.43 Height: 8.0 m
Data from the previous 72 hours. | See also: Recent months at Devonport Airport
Date/Time
EDT
Temp

°C
Wind Pressure Rain
since 9am
mm
Weather Cloud Vis
km
Sea
Height
m
Swell
Dir
 
Speed
knots
Gust
knots
hPa Trend Height
m
Period
s
Dir
06/06:00pm 19.7 WNW 19 22 1004.2 - - - - 10 - - - -
06/05:30pm 20.0 NW 17 23 1004.1 - - - - 10 - - - -
06/05:00pm 21.2 WNW 12 17 1003.9 - - - - 10 - - - -
06/04:30pm 21.8 W 13 18 1003.6 - - - - 10 - - - -
06/04:00pm 21.9 W 8 12 1003.6 - - - - 10 - - - -
06/03:30pm 21.4 SW 11 17 1003.6 - - - - 10 - - - -
06/03:00pm 20.4 SW 11 17 1003.6 - - - - 10 - - - -
06/02:30pm 20.6 SW 14 19 1003.5 - - - - 10 - - - -
06/02:00pm 20.0 SW 13 19 1003.3 - - - - 10 - - - -
06/01:30pm 19.5 SW 13 18 1003.1 - - - - 10 - - - -
06/01:00pm 18.8 SW 15 21 1002.8 - - - - 10 - - - -
06/12:30pm 19.2 SW 18 24 1002.4 - - - - 10 - - - -
06/12:04pm 18.4 WSW 21 31 1002.0 - - - - 10 - - - -
06/11:36am 17.7 SW 20 26 1001.9 - - - - 10 - - - -
06/11:30am 17.3 SW 18 26 1001.9 - - - - 10 - - - -
06/11:00am 18.3 WSW 13 19 1001.5 - - - - 10 - - - -
06/10:30am 17.1 WSW 20 29 1000.8 - - - - 10 - - - -
06/10:18am 17.2 SW 21 31 1000.5 - - - - 10 - - - -
06/10:00am 17.5 WSW 22 30 1000.1 - - - - 10 - - - -
06/09:47am 16.8 SW 19 29 999.9 - - - - 10 - - - -
06/09:30am 16.9 SW 15 24 999.8 - - - Partly cloudy 10 - - - -
06/09:00am 16.7 WSW 17 31 999.1 - - - Mostly clear 10 - - - -
06/08:46am 16.4 WSW 24 40 998.5 - - - - 10 - - - -
06/08:39am 16.1 WSW 30 40 997.7 - - - Partly cloudy 10 - - - -
06/08:30am 16.1 WSW 28 40 997.4 - - - Partly cloudy 10 - - - -
06/08:18am 16.3 WSW 20 37 997.6 - - - Partly cloudy 10 - - - -
06/08:06am 16.4 WSW 15 25 998.1 - - - Partly cloudy 10 - - - -
06/08:00am 16.5 W 12 18 998.2 - - - Partly cloudy 10 - - - -
06/07:30am 16.2 W 7 12 997.6 - - - Partly cloudy 10 - - - -
06/07:00am 16.2 WSW 15 27 996.9 - - - Partly cloudy 10 - - - -
06/06:40am 16.6 W 14 27 996.3 - - - Partly cloudy 10 - - - -
06/06:38am 16.7 W 13 27 996.1 - - - Partly cloudy 10 - - - -
06/06:30am 16.3 WSW 10 16 996.1 - - - Partly cloudy 10 - - - -
06/06:00am 16.6 WSW 19 30 995.5 - - - Mostly clear 10 - - - -
06/05:33am 16.7 WSW 24 34 995.2 - - - - 10 - - - -
06/05:30am 16.9 WSW 26 34 995.1 - - - - 10 - - - -
06/05:00am 16.5 W 22 34 995.2 - - - - 10 - - - -
06/04:30am 16.4 W 25 36 995.2 - - - - 10 - - - -
06/04:00am 16.1 WSW 25 37 995.5 - - - - 10 - - - -
06/03:30am 15.7 W 23 35 996.2 - - - Partly cloudy 10 - - - -
06/03:22am 15.8 W 23 33 996.3 - - - Partly cloudy 10 - - - -
06/03:00am 15.6 W 24 33 996.6 - - - Partly cloudy 10 - - - -
06/02:52am 15.5 W 22 33 996.7 - - - Partly cloudy 10 - - - -
06/02:30am 15.1 W 17 24 997.8 - - - Partly cloudy 10 - - - -
06/02:00am 15.0 WNW 21 27 998.3 - - - Cloudy 10 - - - -
06/01:30am 14.8 WNW 19 24 999.6 - - - Cloudy 10 - - - -
06/01:00am 14.6 WNW 21 29 1000.1 - - - Partly cloudy 10 - - - -
06/12:55am 14.3 WNW 19 29 1000.3 - - - Cloudy 10 - - - -
06/12:30am 14.3 WNW 20 27 1001.1 - - - Partly cloudy 10 - - - -
06/12:00am 14.1 WNW 23 29 1001.1 - - - Cloudy 32 - - - -
 
Date/Time
EDT
Temp

°C
Wind Pressure Rain
since 9am
mm
Weather Cloud Vis
km
Sea
Height
m
Swell
Dir
 
Speed
knots
Gust
knots
hPa Trend Height
m
Period
s
Dir
05/11:30pm 13.6 WNW 22 27 1002.2 - - - Partly cloudy 10 - - - -
05/11:00pm 13.8 WNW 23 29 1003.0 - - - Cloudy 10 - - - -
05/10:30pm 13.3 WNW 23 29 1003.5 - - - Partly cloudy 10 - - - -
05/10:00pm 12.8 WNW 19 29 1004.0 - - - Partly cloudy 10 - - - -
05/09:30pm 12.7 WNW 23 29 1004.5 - - - Partly cloudy 10 - - - -
05/09:00pm 13.2 WNW 22 30 1004.7 - - - Cloudy 10 - - - -
05/08:30pm 13.1 WNW 22 30 1004.9 - - - Partly cloudy 10 - - - -
05/08:00pm 13.2 W 23 29 1005.3 - - - Partly cloudy 10 - - - -
05/07:30pm 13.3 W 20 28 1005.8 - - - Partly cloudy 10 - - - -
05/07:00pm 13.7 W 20 25 1006.3 - - - Partly cloudy 10 - - - -
05/06:53pm 13.6 W 21 31 1006.5 - - - Partly cloudy 10 - - - -
05/06:30pm 13.5 W 20 27 1006.9 - - - Partly cloudy 10 - - - -
05/06:00pm 13.3 W 25 36 1007.4 - - Rain Mostly cloudy 10 - - - -
05/05:55pm 14.1 W 20 31 1007.2 - - - Partly cloudy 10 - - - -
05/05:30pm 15.1 W 23 31 1007.3 - - - Partly cloudy 10 - - - -
05/05:18pm 15.5 W 16 27 1007.6 - - - Partly cloudy 10 - - - -
05/05:00pm 15.2 W 17 21 1007.9 - - - Partly cloudy 10 - - - -
05/04:30pm 17.2 W 20 31 1007.9 - - - Partly cloudy 10 - - - -
05/04:25pm 17.1 W 18 30 1007.9 - - - Partly cloudy 10 - - - -
05/04:00pm 16.0 WSW 17 24 1008.6 - - - Partly cloudy 10 - - - -
05/03:30pm 16.3 WSW 18 26 1008.8 - - - Partly cloudy 10 - - - -
05/03:00pm 15.9 WSW 23 30 1009.4 - - - Cloudy 10 - - - -
05/02:41pm 15.1 SW 16 28 1009.4 - - - Partly cloudy 10 - - - -
05/02:30pm 16.8 WSW 21 28 1009.5 - - - Partly cloudy 10 - - - -
05/02:17pm 16.6 WSW 21 28 1009.4 - - - Partly cloudy 10 - - - -
05/02:00pm 15.8 W 20 28 1009.4 - - - Partly cloudy 10 - - - -
05/01:30pm 16.1 WSW 17 27 1009.5 - - - Partly cloudy 10 - - - -
05/01:29pm 16.1 WSW 17 27 1009.5 - - - Partly cloudy 10 - - - -
05/01:00pm 15.4 WSW 16 22 1010.0 - - - Partly cloudy 10 - - - -
05/12:32pm 16.0 WSW 24 34 1010.2 - - - - 10 - - - -
05/12:30pm 15.2 WSW 26 35 1010.1 - - - - 10 - - - -
05/12:01pm 15.1 SW 21 31 1009.8 - - - Partly cloudy 10 - - - -
05/12:00pm 15.2 SW 20 28 1010.0 - - - Mostly clear 10 - - - -
05/11:30am 14.4 SW 23 35 1009.5 - - - - 10 - - - -
05/11:00am 14.3 SW 24 35 1009.3 - - - - 10 - - - -
05/10:43am 13.8 SW 26 37 1009.3 - - - - 10 - - - -
05/10:41am 13.3 SW 25 37 1009.1 - - - - 10 - - - -
05/10:30am 14.2 SW 19 29 1009.1 - - - - 10 - - - -
05/10:21am 13.1 SW 17 29 1009.1 - - - - 10 - - - -
05/10:00am 12.9 SW 16 23 1009.0 - - - - 10 - - - -
05/09:30am 11.8 SW 18 30 1008.7 - - - - 10 - - - -
05/09:16am 11.6 SW 15 34 1008.4 - - - - 10 - - - -
05/09:00am 11.3 SW 15 22 1008.1 - - - - 10 - - - -
05/08:30am 10.4 SW 15 23 1007.5 - - - - 10 - - - -
05/08:00am 10.2 SW 15 22 1007.1 - - - - 10 - - - -
05/07:30am 9.7 SW 14 19 1006.0 - - - - 10 - - - -
05/07:00am 8.9 WSW 12 16 1005.1 - - - - 10 - - - -
05/06:30am 9.5 WSW 16 22 1004.1 - - - - 10 - - - -
05/06:04am 9.9 SW 15 25 1003.6 - - - - 10 - - - -
05/06:00am 9.9 SW 13 19 1003.5 - - - - 10 - - - -
05/05:30am 9.2 W 10 15 1002.8 - - - Partly cloudy 10 - - - -
05/05:00am 9.3 WSW 11 17 1002.0 - - - Partly cloudy 10 - - - -
05/04:30am 9.8 WSW 14 21 1001.5 - - - - 10 - - - -
05/04:00am 9.7 W 11 20 1000.1 - - - Partly cloudy 10 - - - -
05/03:30am 9.5 WSW 15 25 1000.0 - - - Partly cloudy 10 - - - -
05/03:05am 11.7 WSW 20 31 1000.4 - - - Partly cloudy 10 - - - -
05/03:00am 11.5 WSW 18 24 1000.3 - - - Cloudy 10 - - - -
05/02:46am 11.7 W 15 25 1000.0 - - - - 10 - - - -
05/02:30am 11.5 WSW 14 20 999.9 - - - - 10 - - - -
05/02:00am 12.5 W 16 22 999.7 - - - Partly cloudy 10 - - - -
05/01:30am 13.8 W 22 29 999.3 - - - Partly cloudy 10 - - - -
05/01:00am 13.8 W 16 22 999.7 - - - Partly cloudy 10 - - - -
05/12:30am 14.3 W 19 25 999.7 - - - Partly cloudy 10 - - - -
05/12:00am 14.7 W 18 21 999.6 - - - Cloudy 10 - - - -
 
Date/Time
EDT
Temp

°C
Wind Pressure Rain
since 9am
mm
Weather Cloud Vis
km
Sea
Height
m
Swell
Dir
 
Speed
knots
Gust
knots
hPa Trend Height
m
Period
s
Dir
04/11:30pm 15.0 WNW 21 27 1000.1 - - - Partly cloudy 10 - - - -
04/11:00pm 15.2 WNW 22 28 1000.5 - - - Partly cloudy 10 - - - -
04/10:30pm 15.0 WNW 18 22 1001.1 - - - Partly cloudy 10 - - - -
04/10:00pm 15.2 W 18 24 1001.8 - - - Partly cloudy 10 - - - -
04/09:30pm 14.7 WNW 16 21 1001.8 - - - Partly cloudy 10 - - - -
04/09:07pm 15.2 WNW 21 31 1001.8 - - - Partly cloudy 10 - - - -
04/09:02pm 15.6 WNW 21 31 1001.7 - - - Partly cloudy 10 - - - -
04/09:00pm 15.4 WNW 21 29 1001.9 - - Showers Cloudy 10 - - - -
04/08:55pm 15.4 WNW 24 31 1001.9 - - - Partly cloudy 5 - - - -
04/08:49pm 15.6 WNW 21 31 1001.9 - - - Partly cloudy 5 - - - -
04/08:47pm 15.9 WNW 21 28 1002.1 - - - Partly cloudy 6 - - - -
04/08:30pm 16.5 WNW 20 26 1002.2 - - - Partly cloudy 10 - - - -
04/08:00pm 16.8 WNW 20 30 1002.5 - - - Partly cloudy 10 - - - -
04/07:55pm 16.8 WNW 20 30 1002.5 - - - Partly cloudy 10 - - - -
04/07:30pm 16.8 WNW 23 29 1002.6 - - - - 10 - - - -
04/07:00pm 17.2 WNW 22 28 1002.8 - - - Partly cloudy 10 - - - -
04/06:31pm 17.0 WNW 25 38 1003.4 - - - Partly cloudy 10 - - - -
04/06:30pm 17.5 WNW 25 33 1003.5 - - - Partly cloudy 10 - - - -
04/06:00pm 18.3 WNW 22 28 1003.3 - - - Mostly cloudy 10 - - - -
04/05:30pm 19.2 WNW 19 26 1003.7 - - - Partly cloudy 10 - - - -
04/05:00pm 18.0 WNW 26 36 1004.1 - - - Partly cloudy 10 - - - -
04/04:58pm 18.6 WNW 26 36 1004.0 - - - Partly cloudy 10 - - - -
04/04:30pm 19.2 NW 26 31 1004.2 - - - Partly cloudy 10 - - - -
04/04:00pm 19.7 NW 25 33 1004.7 - - - Partly cloudy 10 - - - -
04/03:30pm 20.2 WNW 25 32 1004.6 - - - Partly cloudy 10 - - - -
04/03:00pm 19.6 NW 23 29 1005.3 - - - Mostly cloudy 10 - - - -
04/02:30pm 19.9 NW 25 33 1005.6 - - - Partly cloudy 10 - - - -
04/02:00pm 19.5 NW 25 31 1005.6 - - - Partly cloudy 10 - - - -
04/01:30pm 17.9 NW 25 33 1006.3 - - - Partly cloudy 10 - - - -
04/01:00pm 20.4 NW 23 30 1006.4 - - - Partly cloudy 10 - - - -
04/12:30pm 19.9 WNW 23 29 1007.1 - - - Partly cloudy 10 - - - -
04/12:00pm 19.6 WNW 25 30 1007.6 - - - Cloudy 10 - - - -
04/11:30am 18.9 WNW 24 29 1008.1 - - - Partly cloudy 10 - - - -
04/11:00am 17.9 WNW 23 28 1008.5 - - - Partly cloudy 10 - - - -
04/10:30am 18.0 WNW 21 25 1008.9 - - - - 10 - - - -
04/10:00am 16.7 WNW 22 27 1009.1 - - - Partly cloudy 10 - - - -
04/09:30am 16.7 WNW 22 28 1009.3 - - - Partly cloudy 10 - - - -
04/09:00am 16.4 WNW 23 30 1009.5 - - - Partly cloudy 10 - - - -
04/08:30am 15.6 WNW 20 25 1009.3 - - - - 10 - - - -
04/08:00am 14.9 WNW 19 24 1009.5 - - - - 10 - - - -
04/07:30am 14.1 WNW 17 22 1009.3 - - - Partly cloudy 10 - - - -
04/07:00am 13.9 WNW 19 23 1009.3 - - - Partly cloudy 10 - - - -
04/06:30am 14.2 WNW 18 22 1009.3 - - - Partly cloudy 10 - - - -
04/06:00am 14.3 WNW 20 26 1009.5 - - - Cloudy 10 - - - -
04/05:30am 14.6 W 15 21 1009.7 - - - Partly cloudy 10 - - - -
04/05:00am 14.9 WNW 15 20 1009.7 - - - Cloudy 10 - - - -
04/04:30am 14.9 WNW 16 23 1009.9 - - - Cloudy 10 - - - -
04/04:00am 14.7 WNW 17 23 1010.1 - - - Cloudy 10 - - - -
04/03:30am 14.4 WNW 16 22 1010.7 - - - Partly cloudy 10 - - - -
04/03:00am 14.0 W 17 21 1011.1 - - - Mostly cloudy 10 - - - -
04/02:30am 14.5 W 13 18 1011.5 - - - Partly cloudy 10 - - - -
04/02:00am 14.0 W 11 14 1011.7 - - - Cloudy 10 - - - -
04/01:30am 14.4 W 12 15 1012.2 - - - Cloudy 10 - - - -
04/01:00am 14.3 W 12 16 1012.3 - - - Partly cloudy 10 - - - -
04/12:30am 14.6 W 14 19 1012.8 - - - Cloudy 10 - - - -
04/12:00am 14.9 W 14 17 1013.0 - - - Cloudy 10 - - - -
 
Date/Time
EDT
Temp

°C
Wind Pressure Rain
since 9am
mm
Weather Cloud Vis
km
Sea
Height
m
Swell
Dir
 
Speed
knots
Gust
knots
hPa Trend Height
m
Period
s
Dir
03/11:30pm 15.1 W 12 16 1013.2 - - - Cloudy 10 - - - -
03/11:00pm 15.2 W 11 14 1013.4 - - - Cloudy 10 - - - -
03/10:30pm 13.9 W 8 9 1013.6 - - - Partly cloudy 10 - - - -
03/10:00pm 14.5 WSW 5 7 1013.8 - - - Cloudy 10 - - - -
03/09:30pm 14.1 W 9 13 1014.1 - - - Partly cloudy 10 - - - -
03/09:00pm 14.6 W 14 17 1013.9 - - - - 10 - - - -
03/08:30pm 15.3 W 17 24 1013.4 - - - - 10 - - - -
03/08:00pm 16.0 W 13 19 1012.7 - - - - 10 - - - -
03/07:30pm 17.5 W 14 17 1012.5 - - - - 10 - - - -
03/07:00pm 18.3 WNW 19 25 1012.1 - - - - 10 - - - -
03/06:30pm 18.9 NW 22 28 1012.1 - - - - 10 - - - -

Other Formats:

Comma delimited format used in spreadsheet applications
http://www.bom.gov.au/fwo/IDV60701/IDV60701.95960.axf

JavaScript Object Notation format (JSON) in row-major order
http://www.bom.gov.au/fwo/IDV60701/IDV60701.95960.json